Time;durP1;ratioP1;P1;durP2;ratioP2;P2;SDS_P1;SDS_P2;PMS_P1;PMS_P2;Temp;Humidity;BMP_temperature;BMP_pressure;BME280_temperature;BME280_humidity;BME280_pressure;Samples;Min_cycle;Max_cycle;Signal;HPM_P1;HPM_P2
2021/04/18 00:01:46;;;;;;;11.37;9.30;;;8.20;85.00;15.50;99692.00;;;;5013621;28;20199;-69
2021/04/18 00:04:12;;;;;;;10.93;9.40;;;8.20;85.00;15.70;99693.00;;;;5013020;28;20481;-70
2021/04/18 00:06:39;;;;;;;10.00;9.00;;;8.20;84.90;15.60;99694.00;;;;5011964;28;20218;-69
2021/04/18 00:09:06;;;;;;;10.43;8.93;;;8.20;85.00;15.60;99688.00;;;;5012729;28;20831;-70
2021/04/18 00:11:32;;;;;;;10.27;8.70;;;8.20;85.00;15.70;99682.00;;;;5012507;28;20568;-70
2021/04/18 00:13:58;;;;;;;10.57;9.33;;;8.20;85.00;15.80;99681.00;;;;5012142;28;20179;-70
2021/04/18 00:16:24;;;;;;;10.50;9.40;;;8.20;85.00;15.80;99675.00;;;;4996244;28;20726;-69
2021/04/18 00:18:50;;;;;;;10.30;9.30;;;8.20;85.00;15.90;99694.00;;;;5014229;28;20426;-70
2021/04/18 00:21:15;;;;;;;10.17;8.40;;;8.20;85.00;15.80;99681.00;;;;5031619;28;20454;-70
2021/04/18 00:23:41;;;;;;;9.77;8.77;;;8.20;85.00;15.70;99678.00;;;;5013849;28;20548;-69
2021/04/18 00:26:07;;;;;;;9.77;8.77;;;8.20;85.00;15.70;99667.00;;;;5014121;28;20203;-70
2021/04/18 00:28:32;;;;;;;10.00;8.33;;;8.20;85.00;15.80;99677.00;;;;4996917;28;20187;-70
2021/04/18 00:30:59;;;;;;;9.50;8.50;;;8.20;85.00;15.50;99682.00;;;;5031607;28;20392;-70
2021/04/18 00:33:25;;;;;;;10.27;9.07;;;8.20;85.00;15.40;99660.00;;;;5014173;28;20208;-69
2021/04/18 00:35:51;;;;;;;10.67;8.90;;;8.20;85.00;15.60;99670.00;;;;4995272;28;20191;-69
2021/04/18 00:38:17;;;;;;;9.93;8.93;;;8.20;85.00;15.70;99672.00;;;;5014089;28;20568;-70
2021/04/18 00:40:43;;;;;;;10.53;9.03;;;8.20;85.00;15.70;99681.00;;;;5013616;28;20269;-70
2021/04/18 00:43:09;;;;;;;10.10;8.93;;;8.20;85.00;15.70;99676.00;;;;5013163;28;20273;-70
2021/04/18 00:45:35;;;;;;;9.05;8.15;;;8.20;85.00;15.70;99673.00;;;;5013853;28;20186;-70
2021/04/18 00:48:01;;;;;;;10.03;9.00;;;8.20;85.00;15.80;99676.00;;;;5013348;28;20207;-71
2021/04/18 00:50:29;;;;;;;9.73;8.37;;;8.20;85.10;15.50;99661.00;;;;4980906;28;20556;-70
2021/04/18 00:52:55;;;;;;;9.85;8.30;;;8.20;85.00;15.40;99670.00;;;;5029895;28;20207;-70
2021/04/18 00:55:23;;;;;;;10.10;8.80;;;8.20;85.00;15.60;99649.00;;;;5031612;28;20197;-71
2021/04/18 00:57:50;;;;;;;10.90;9.23;;;8.20;85.00;15.50;99667.00;;;;4996395;28;20218;-71
2021/04/18 01:00:16;;;;;;;10.68;9.40;;;8.20;85.90;15.50;99664.00;;;;5030312;28;20182;-71
2021/04/18 01:02:42;;;;;;;10.57;9.35;;;8.20;85.00;15.60;99676.00;;;;5012538;28;20265;-71
2021/04/18 01:05:08;;;;;;;10.33;9.13;;;8.20;85.10;15.30;99658.00;;;;5013767;28;20662;-72
2021/04/18 01:07:35;;;;;;;9.68;7.97;;;8.20;85.10;15.70;99660.00;;;;5012995;28;20261;-71
2021/04/18 01:10:03;;;;;;;10.20;8.75;;;8.20;85.10;15.60;99648.00;;;;5029145;28;20190;-72
2021/04/18 01:12:28;;;;;;;9.15;8.15;;;8.20;85.10;15.90;99659.00;;;;5012649;28;20573;-72
2021/04/18 01:14:54;;;;;;;11.00;9.67;;;8.20;85.10;15.30;99647.00;;;;5012679;28;20178;-72
2021/04/18 01:17:20;;;;;;;10.60;9.50;;;8.20;85.10;15.30;99662.00;;;;5029777;28;20230;-72
2021/04/18 01:19:45;;;;;;;10.53;9.47;;;8.20;85.10;15.40;99647.00;;;;5029445;28;20190;-72
2021/04/18 01:22:11;;;;;;;11.00;9.17;;;8.20;85.10;15.30;99656.00;;;;5030495;28;20680;-70
2021/04/18 01:24:37;;;;;;;10.83;8.63;;;8.20;85.10;15.40;99647.00;;;;5029046;28;20270;-71
2021/04/18 01:27:05;;;;;;;10.33;8.93;;;8.20;85.10;15.60;99648.00;;;;5012009;28;20209;-74
2021/04/18 01:29:31;;;;;;;10.73;8.98;;;8.20;85.10;15.60;99632.00;;;;5030521;28;20209;-70
2021/04/18 01:31:56;;;;;;;12.00;9.60;;;8.20;85.10;15.40;99639.00;;;;5028372;28;20205;-69
2021/04/18 01:34:22;;;;;;;9.93;8.87;;;8.20;85.10;15.10;99642.00;;;;5030932;28;20183;-69
2021/04/18 01:36:49;;;;;;;11.70;9.97;;;8.20;85.10;15.40;99631.00;;;;4995848;28;20638;-69
2021/04/18 01:39:15;;;;;;;11.95;9.27;;;8.20;85.10;15.60;99640.00;;;;5028459;28;20174;-69
2021/04/18 01:41:42;;;;;;;11.70;10.00;;;8.20;85.10;15.40;99635.00;;;;5030521;28;20237;-69
2021/04/18 01:44:14;;;;;;;11.27;8.77;;;8.20;85.10;15.40;99633.00;;;;4992851;28;20227;-70
2021/04/18 01:46:40;;;;;;;9.68;8.60;;;8.20;85.10;15.50;99625.00;;;;5009133;28;20570;-69
2021/04/18 01:49:06;;;;;;;10.73;9.55;;;8.20;85.10;15.60;99635.00;;;;4993310;28;20347;-69
2021/04/18 01:51:32;;;;;;;9.77;8.70;;;8.20;85.10;15.40;99628.00;;;;4993098;28;20286;-70
2021/04/18 01:53:58;;;;;;;9.43;8.10;;;8.20;85.10;15.60;99634.00;;;;5008687;28;20180;-70
2021/04/18 01:56:24;;;;;;;10.97;9.80;;;8.20;85.10;15.60;99637.00;;;;5009345;28;20207;-70
2021/04/18 01:58:49;;;;;;;11.13;9.67;;;8.20;85.10;15.50;99631.00;;;;5009118;28;20223;-72
2021/04/18 02:01:15;;;;;;;11.10;9.50;;;8.10;85.00;15.50;99611.00;;;;4976923;28;20257;-71
2021/04/18 02:03:45;;;;;;;10.37;9.07;;;8.20;85.10;15.50;99638.00;;;;5010045;28;20187;-70
2021/04/18 02:06:11;;;;;;;10.23;8.57;;;8.20;85.10;15.30;99633.00;;;;4992395;28;20670;-70
2021/04/18 02:08:37;;;;;;;10.37;9.10;;;8.20;85.10;15.40;99631.00;;;;5008848;28;20211;-70
2021/04/18 02:11:02;;;;;;;10.00;8.80;;;8.20;85.10;15.50;99634.00;;;;4992768;28;20285;-70
2021/04/18 02:13:30;;;;;;;11.53;9.53;;;8.20;85.10;15.50;99624.00;;;;5009346;28;20253;-69
2021/04/18 02:15:57;;;;;;;9.85;8.65;;;8.20;85.10;15.70;99632.00;;;;5010489;28;20445;-70
2021/04/18 02:18:23;;;;;;;9.63;8.52;;;8.20;85.10;15.50;99624.00;;;;5009000;28;20211;-70
2021/04/18 02:20:49;;;;;;;10.37;8.70;;;8.20;85.10;15.60;99622.00;;;;5009918;28;20192;-70
2021/04/18 02:23:14;;;;;;;9.53;8.53;;;8.20;85.10;15.40;99620.00;;;;4976751;28;20445;-70
2021/04/18 02:25:40;;;;;;;9.83;8.50;;;8.20;85.10;15.20;99629.00;;;;4992883;28;20446;-70
2021/04/18 02:28:06;;;;;;;10.83;9.50;;;8.20;85.10;15.30;99617.00;;;;5009511;28;20190;-71
2021/04/18 02:30:32;;;;;;;11.00;9.17;;;8.20;85.10;15.50;99613.00;;;;5009345;28;20670;-72
2021/04/18 02:32:57;;;;;;;11.10;8.93;;;8.20;85.10;15.40;99620.00;;;;4992011;28;20207;-70
2021/04/18 02:35:23;;;;;;;11.03;9.37;;;8.20;85.20;15.50;99620.00;;;;4976479;28;20473;-70
2021/04/18 02:37:49;;;;;;;10.93;9.18;;;8.20;85.10;15.40;99623.00;;;;5008226;28;20228;-70
2021/04/18 02:40:15;;;;;;;11.00;9.57;;;8.20;85.10;15.40;99608.00;;;;5025507;28;20179;-72
2021/04/18 02:42:41;;;;;;;10.00;8.90;;;8.20;85.10;15.50;99606.00;;;;4975536;28;20633;-70
2021/04/18 02:45:10;;;;;;;10.03;8.77;;;8.10;85.90;15.20;99617.00;;;;4991901;28;20417;-70
2021/04/18 02:47:36;;;;;;;10.63;9.52;;;8.20;85.20;15.30;99608.00;;;;4976489;28;20474;-70
2021/04/18 02:50:06;;;;;;;12.15;9.45;;;8.10;85.10;15.40;99609.00;;;;4992260;28;20187;-70
2021/04/18 02:52:32;;;;;;;11.00;9.77;;;8.20;85.10;15.40;99603.00;;;;4976416;28;20261;-70
2021/04/18 02:54:58;;;;;;;10.37;9.13;;;8.20;85.10;15.70;99615.00;;;;5010139;28;20183;-73
2021/04/18 02:57:24;;;;;;;9.60;8.60;;;8.10;85.00;15.40;99609.00;;;;5007802;28;20286;-70
2021/04/18 02:59:49;;;;;;;9.37;8.43;;;8.20;85.10;15.10;99605.00;;;;5011844;28;20408;-71
2021/04/18 03:02:15;;;;;;;9.90;8.90;;;8.20;85.10;15.50;99600.00;;;;5012780;28;20567;-71
2021/04/18 03:04:41;;;;;;;10.90;9.00;;;8.20;85.20;15.20;99609.00;;;;4995643;28;20677;-70
2021/04/18 03:07:06;;;;;;;10.60;8.93;;;8.10;85.00;15.50;99599.00;;;;5014102;28;20204;-71
2021/04/18 03:09:32;;;;;;;9.70;8.57;;;8.10;85.00;15.20;99600.00;;;;5013483;28;20184;-70
2021/04/18 03:11:58;;;;;;;10.50;9.20;;;8.10;85.00;15.60;99596.00;;;;4995291;28;20204;-70
2021/04/18 03:14:23;;;;;;;10.97;9.70;;;8.20;85.20;15.50;99589.00;;;;5011830;28;20180;-70
2021/04/18 03:16:49;;;;;;;10.70;9.10;;;8.10;85.00;15.20;99599.00;;;;4979499;28;20206;-70
2021/04/18 03:19:15;;;;;;;11.90;9.93;;;8.10;85.10;15.40;99589.00;;;;4995135;28;20263;-71
2021/04/18 03:21:41;;;;;;;10.80;9.70;;;8.10;85.10;15.50;99596.00;;;;4995894;28;20544;-71
2021/04/18 03:24:07;;;;;;;11.43;9.50;;;8.20;85.20;15.20;99593.00;;;;5012235;28;20186;-70
2021/04/18 03:26:33;;;;;;;9.93;8.88;;;8.10;85.10;15.40;99579.00;;;;4995616;28;20298;-70
2021/04/18 03:28:59;;;;;;;11.50;9.97;;;8.10;85.10;15.60;99588.00;;;;4995351;28;20271;-70
2021/04/18 03:31:24;;;;;;;10.07;9.07;;;8.10;85.10;15.40;99588.00;;;;4995315;28;20223;-71
2021/04/18 03:33:50;;;;;;;10.33;8.80;;;8.10;85.10;15.40;99586.00;;;;5012330;28;20814;-71
2021/04/18 03:36:16;;;;;;;11.53;9.47;;;8.10;85.00;15.50;99589.00;;;;4995357;28;20199;-70
2021/04/18 03:38:42;;;;;;;11.30;9.73;;;8.10;85.10;15.40;99591.00;;;;5011038;28;20306;-70
2021/04/18 03:41:08;;;;;;;11.30;9.80;;;8.10;85.00;15.40;99589.00;;;;5012083;28;20286;-70
2021/04/18 03:43:34;;;;;;;11.50;10.20;;;8.10;85.10;15.70;99598.00;;;;4979170;28;20228;-70
2021/04/18 03:45:59;;;;;;;11.47;10.30;;;8.10;85.10;15.50;99597.00;;;;4994991;28;20267;-70
2021/04/18 03:48:25;;;;;;;10.97;9.07;;;8.10;85.10;15.50;99599.00;;;;5012611;28;20693;-71
2021/04/18 03:50:51;;;;;;;10.93;9.77;;;8.10;85.10;15.30;99600.00;;;;5011296;28;20230;-70
2021/04/18 03:53:17;;;;;;;12.00;10.00;;;8.10;85.10;15.60;99606.00;;;;5010817;28;20469;-70
2021/04/18 03:55:42;;;;;;;9.70;8.23;;;8.10;85.10;15.40;99586.00;;;;5011084;28;20634;-70
2021/04/18 03:58:08;;;;;;;12.43;9.90;;;8.10;85.10;15.20;99591.00;;;;4995106;28;20220;-70
2021/04/18 04:00:34;;;;;;;11.00;9.37;;;8.10;85.10;15.20;99590.00;;;;5010705;28;20661;-70
2021/04/18 04:03:00;;;;;;;12.60;10.03;;;8.10;85.10;15.30;99598.00;;;;5011163;28;20203;-70
2021/04/18 04:05:26;;;;;;;12.13;10.77;;;8.10;85.10;15.40;99597.00;;;;4994835;28;20180;-70
2021/04/18 04:07:51;;;;;;;11.73;9.33;;;8.10;85.10;15.30;99605.00;;;;5010736;28;20558;-70
2021/04/18 04:10:17;;;;;;;12.20;9.20;;;8.10;85.10;15.30;99594.00;;;;5012192;28;20697;-70
2021/04/18 04:12:43;;;;;;;12.27;10.17;;;8.10;85.10;15.60;99607.00;;;;4994636;28;20195;-70
2021/04/18 04:15:09;;;;;;;11.63;9.77;;;8.10;85.10;15.40;99600.00;;;;4993914;28;20191;-71
2021/04/18 04:17:34;;;;;;;11.35;10.15;;;8.10;85.10;15.20;99603.00;;;;4995095;28;20222;-70
2021/04/18 04:20:00;;;;;;;13.03;10.07;;;8.10;85.10;15.40;99583.00;;;;4994645;28;20552;-72
2021/04/18 04:22:26;;;;;;;11.93;10.53;;;8.10;85.10;15.20;99598.00;;;;5010909;28;20200;-70
2021/04/18 04:24:52;;;;;;;12.43;10.30;;;8.10;85.10;15.40;99589.00;;;;5010794;28;20608;-70
2021/04/18 04:27:19;;;;;;;12.00;10.60;;;8.10;85.10;15.60;99597.00;;;;4978091;28;20203;-71
2021/04/18 04:29:46;;;;;;;11.95;10.48;;;8.10;85.10;15.20;99607.00;;;;4977773;28;20179;-70
2021/04/18 04:32:12;;;;;;;13.05;10.95;;;8.10;85.10;15.40;99593.00;;;;5011012;28;20206;-71
2021/04/18 04:34:39;;;;;;;11.33;9.83;;;8.10;85.20;15.40;99598.00;;;;5011346;28;20192;-70
2021/04/18 04:37:04;;;;;;;11.30;10.10;;;8.10;85.10;15.10;99594.00;;;;4978665;28;20495;-73
2021/04/18 04:39:30;;;;;;;10.83;9.73;;;8.10;85.10;15.10;99603.00;;;;4994135;28;20180;-72
2021/04/18 04:41:56;;;;;;;11.40;9.83;;;8.10;85.20;15.40;99607.00;;;;5009922;28;20199;-72
2021/04/18 04:44:22;;;;;;;13.03;10.77;;;8.10;85.20;15.40;99604.00;;;;5026654;28;20255;-71
2021/04/18 04:46:47;;;;;;;13.30;10.00;;;8.10;85.20;15.60;99601.00;;;;4993900;28;20204;-70
2021/04/18 04:49:13;;;;;;;11.90;9.90;;;8.10;85.20;15.40;99596.00;;;;4993459;28;20215;-70
2021/04/18 04:51:39;;;;;;;11.57;10.37;;;8.10;85.20;15.30;99598.00;;;;4977814;28;20199;-70
2021/04/18 04:54:05;;;;;;;10.67;9.57;;;8.10;85.20;15.40;99599.00;;;;4977489;28;20563;-72
2021/04/18 04:56:31;;;;;;;12.40;9.93;;;8.10;85.20;15.30;99569.00;;;;5009649;28;20207;-71
2021/04/18 04:58:56;;;;;;;12.70;10.53;;;8.10;85.20;15.30;99588.00;;;;4994002;28;20223;-71
2021/04/18 05:01:22;;;;;;;12.00;10.40;;;8.10;85.20;15.30;99610.00;;;;5011447;28;20466;-70
2021/04/18 05:03:48;;;;;;;11.17;9.97;;;8.10;85.20;15.50;99589.00;;;;4993531;28;20195;-70
2021/04/18 05:06:14;;;;;;;11.00;9.70;;;8.10;85.20;15.40;99599.00;;;;4977439;28;20469;-70
2021/04/18 05:08:40;;;;;;;12.13;10.50;;;8.10;85.10;15.20;99595.00;;;;4993491;28;20215;-70
2021/04/18 05:11:05;;;;;;;12.03;10.70;;;8.10;85.10;15.40;99598.00;;;;4993220;28;20208;-70
2021/04/18 05:13:31;;;;;;;10.50;9.10;;;8.10;85.20;15.40;99607.00;;;;4977880;28;20180;-71
2021/04/18 05:15:57;;;;;;;11.43;10.23;;;8.10;85.10;15.40;99595.00;;;;4992940;28;20441;-70
2021/04/18 05:18:23;;;;;;;12.70;10.93;;;8.10;85.20;15.40;99600.00;;;;4993535;28;20493;-72
2021/04/18 05:20:49;;;;;;;12.53;10.40;;;8.10;85.20;15.40;99609.00;;;;5008728;28;20192;-70
2021/04/18 05:23:14;;;;;;;12.00;10.70;;;8.10;85.20;15.70;99607.00;;;;5009409;28;20937;-71
2021/04/18 05:25:40;;;;;;;11.30;9.43;;;8.10;85.20;15.20;99616.00;;;;4977245;28;20737;-71
2021/04/18 05:28:06;;;;;;;14.13;10.87;;;8.10;85.20;15.50;99606.00;;;;4993853;28;20439;-70
2021/04/18 05:30:32;;;;;;;12.50;10.70;;;8.10;85.20;15.60;99615.00;;;;4976071;28;20717;-71
2021/04/18 05:32:57;;;;;;;12.97;10.33;;;8.10;85.20;15.60;99608.00;;;;4977187;28;20203;-70
2021/04/18 05:35:23;;;;;;;11.10;9.60;;;8.10;85.20;15.60;99613.00;;;;5009055;28;20241;-71
2021/04/18 05:37:49;;;;;;;13.13;10.80;;;8.10;85.20;15.40;99612.00;;;;5008925;28;20212;-70
2021/04/18 05:40:14;;;;;;;12.30;10.60;;;8.10;85.20;15.50;99613.00;;;;5009501;28;20171;-71
2021/04/18 05:42:40;;;;;;;13.30;10.63;;;8.10;85.20;15.40;99616.00;;;;4976827;28;20355;-71
2021/04/18 05:45:07;;;;;;;13.37;10.27;;;8.10;85.20;15.50;99607.00;;;;4992145;28;20179;-70
2021/04/18 05:47:32;;;;;;;12.23;9.30;;;8.10;85.20;15.40;99609.00;;;;5010494;28;20204;-71
2021/04/18 05:49:58;;;;;;;12.10;10.40;;;8.10;85.20;15.40;99619.00;;;;5010369;28;20183;-70
2021/04/18 05:52:24;;;;;;;10.63;9.20;;;8.10;85.10;15.30;99613.00;;;;5008904;28;20479;-71
2021/04/18 05:54:53;;;;;;;13.57;11.20;;;8.10;85.20;15.50;99606.00;;;;5009033;28;20668;-71
2021/04/18 05:57:20;;;;;;;13.60;10.32;;;8.10;85.20;15.50;99623.00;;;;4993051;28;20251;-71
2021/04/18 05:59:45;;;;;;;13.73;11.30;;;8.10;85.20;15.40;99611.00;;;;5007948;28;20279;-70
2021/04/18 06:02:15;;;;;;;11.80;10.47;;;8.10;85.20;15.30;99607.00;;;;5009512;28;20320;-71
2021/04/18 06:04:41;;;;;;;15.27;11.15;;;8.10;85.20;15.40;99610.00;;;;5009084;28;20196;-71
2021/04/18 06:07:07;;;;;;;12.87;10.73;;;8.10;85.20;15.30;99610.00;;;;5008885;28;20570;-70
2021/04/18 06:09:33;;;;;;;13.00;11.70;;;8.10;85.20;15.40;99599.00;;;;5010623;28;20180;-71
2021/04/18 06:11:58;;;;;;;13.67;10.50;;;8.10;85.20;15.60;99605.00;;;;5009874;28;20950;-70
2021/04/18 06:14:24;;;;;;;12.30;11.00;;;8.10;85.20;15.40;99606.00;;;;5009820;28;20266;-70
2021/04/18 06:16:51;;;;;;;12.73;11.23;;;8.10;85.20;15.40;99610.00;;;;5006477;28;20237;-70
2021/04/18 06:19:18;;;;;;;11.90;10.30;;;8.10;85.20;15.60;99601.00;;;;5009879;28;20176;-70
2021/04/18 06:21:44;;;;;;;12.55;10.93;;;8.10;85.20;15.50;99608.00;;;;5007397;28;20217;-70
2021/04/18 06:24:10;;;;;;;12.02;10.65;;;8.10;85.20;15.50;99606.00;;;;4991544;28;20184;-70
2021/04/18 06:26:36;;;;;;;12.27;10.98;;;8.10;85.20;15.60;99598.00;;;;4991578;28;20203;-70
2021/04/18 06:29:01;;;;;;;12.10;10.27;;;8.10;85.20;15.50;99613.00;;;;5009879;28;20213;-70
2021/04/18 06:31:27;;;;;;;12.10;10.80;;;8.10;85.20;15.40;99608.00;;;;4990691;28;20222;-71
2021/04/18 06:33:53;;;;;;;13.47;11.00;;;8.10;85.20;15.50;99611.00;;;;5011374;28;20187;-70
2021/04/18 06:36:18;;;;;;;13.70;11.20;;;8.10;85.20;15.40;99611.00;;;;5011760;28;20767;-71
2021/04/18 06:38:44;;;;;;;14.20;11.23;;;8.10;85.20;15.40;99612.00;;;;4995484;28;20318;-70
2021/04/18 06:41:11;;;;;;;13.53;11.13;;;8.20;85.30;15.50;99607.00;;;;5011236;28;20203;-71
2021/04/18 06:43:38;;;;;;;12.00;10.80;;;8.10;85.20;15.50;99602.00;;;;4980402;28;20708;-71
2021/04/18 06:46:04;;;;;;;12.50;11.10;;;8.10;85.20;15.70;99599.00;;;;4979251;28;20208;-71
2021/04/18 06:48:30;;;;;;;13.05;11.20;;;8.10;85.20;15.50;99591.00;;;;4978777;28;20187;-70
2021/04/18 06:50:56;;;;;;;12.43;10.20;;;8.20;85.30;15.50;99606.00;;;;4979930;28;20192;-70
2021/04/18 06:53:21;;;;;;;13.73;11.27;;;8.10;85.20;15.50;99601.00;;;;5012786;28;20171;-70
2021/04/18 06:55:47;;;;;;;12.07;9.90;;;8.10;85.10;15.50;99604.00;;;;5013551;28;20187;-70
2021/04/18 06:58:13;;;;;;;13.37;10.70;;;8.10;85.20;15.40;99603.00;;;;4996409;28;20574;-71
2021/04/18 07:00:39;;;;;;;14.33;10.87;;;8.20;85.20;15.60;99610.00;;;;5012081;28;20234;-70
2021/04/18 07:03:15;;;;;;;14.07;10.87;;;8.20;85.20;15.50;99608.00;;;;4995595;28;20543;-71
2021/04/18 07:05:43;;;;;;;13.68;10.82;;;8.20;85.20;15.40;99617.00;;;;5013224;28;20522;-71
2021/04/18 07:08:26;;;;;;;12.35;10.98;;;8.20;85.20;15.50;99608.00;;;;5012454;28;20186;-71
2021/04/18 07:11:18;;;;;;;14.52;12.40;;;8.20;85.20;15.40;99622.00;;;;5012294;28;20179;-70
2021/04/18 07:13:45;;;;;;;12.40;10.20;;;8.20;85.20;15.30;99612.00;;;;4998482;28;20659;-71
2021/04/18 07:16:25;;;;;;;13.48;12.05;;;8.20;85.20;15.50;99606.00;;;;4995020;28;20203;-71
2021/04/18 07:18:51;;;;;;;12.75;10.98;;;8.20;85.20;15.40;99610.00;;;;4980453;28;20757;-71
2021/04/18 07:21:16;;;;;;;11.90;10.23;;;8.20;85.20;15.40;99615.00;;;;5011975;28;20670;-71
2021/04/18 07:23:42;;;;;;;14.00;11.00;;;8.20;85.20;15.40;99618.00;;;;5011596;28;20263;-71
2021/04/18 07:26:23;;;;;;;17.10;10.83;;;8.20;85.20;15.50;99620.00;;;;5011958;28;20203;-71
2021/04/18 07:28:50;;;;;;;13.88;11.15;;;8.20;85.20;15.50;99615.00;;;;5011756;28;20191;-71
2021/04/18 07:31:33;;;;;;;12.05;10.63;;;8.20;86.00;15.40;99617.00;;;;4962809;28;20199;-71
2021/04/18 07:34:09;;;;;;;14.45;11.60;;;8.20;85.10;15.10;99605.00;;;;4996326;28;20191;-71
2021/04/18 07:36:38;;;;;;;13.80;11.65;;;8.20;85.10;15.30;99621.00;;;;5011910;28;20203;-71
2021/04/18 07:39:08;;;;;;;13.43;11.48;;;8.20;85.10;15.30;99614.00;;;;4996048;28;20241;-70
2021/04/18 07:41:46;;;;;;;13.13;10.63;;;8.20;85.10;15.20;99609.00;;;;4963123;28;20286;-71
2021/04/18 07:44:17;;;;;;;11.40;10.18;;;8.20;85.10;15.30;99608.00;;;;4994915;28;20242;-70
2021/04/18 07:46:53;;;;;;;12.63;10.52;;;8.20;85.10;15.50;99617.00;;;;4978829;28;20196;-71
2021/04/18 07:49:19;;;;;;;11.93;10.23;;;8.20;85.10;15.60;99607.00;;;;4980517;28;20207;-71
2021/04/18 07:51:47;;;;;;;11.00;9.90;;;8.20;85.10;15.30;99603.00;;;;4978455;28;20693;-71
2021/04/18 07:54:14;;;;;;;13.57;10.88;;;8.20;85.10;15.30;99598.00;;;;4995680;28;20179;-70
2021/04/18 07:56:47;;;;;;;12.73;11.40;;;8.20;85.10;15.40;99618.00;;;;4978500;28;20211;-71
2021/04/18 07:59:14;;;;;;;11.65;10.45;;;8.20;85.10;15.30;99610.00;;;;5011105;28;20191;-71
2021/04/18 08:01:40;;;;;;;11.85;10.05;;;8.20;85.10;15.50;99619.00;;;;5012005;28;20200;-71
2021/04/18 08:04:06;;;;;;;11.73;10.52;;;8.20;85.10;15.30;99618.00;;;;4993543;28;20188;-72
2021/04/18 08:06:32;;;;;;;12.02;10.43;;;8.20;85.10;15.30;99612.00;;;;5010334;28;20251;-71
2021/04/18 08:08:58;;;;;;;12.00;10.70;;;8.20;85.10;15.30;99616.00;;;;5010954;28;20214;-71
2021/04/18 08:11:24;;;;;;;12.50;10.60;;;8.20;85.10;15.40;99607.00;;;;5009764;28;20681;-71
2021/04/18 08:13:52;;;;;;;11.35;10.15;;;8.20;85.10;15.30;99613.00;;;;4994500;28;20354;-71
2021/04/18 08:16:31;;;;;;;10.93;9.75;;;8.20;85.10;15.30;99616.00;;;;4994221;28;20282;-71
2021/04/18 08:19:09;;;;;;;14.32;10.25;;;8.20;85.10;15.40;99617.00;;;;4976592;28;20277;-71
2021/04/18 08:21:39;;;;;;;11.80;10.27;;;8.20;85.10;15.20;99612.00;;;;4994295;28;20211;-71
2021/04/18 08:24:18;;;;;;;12.60;10.85;;;8.20;85.10;15.30;99619.00;;;;5010926;28;20230;-72
2021/04/18 08:26:59;;;;;;;10.75;9.63;;;8.20;85.20;15.20;99620.00;;;;5009382;28;20208;-71
2021/04/18 08:29:25;;;;;;;12.07;10.07;;;8.20;85.20;15.40;99620.00;;;;5010812;28;20188;-71
2021/04/18 08:32:17;;;;;;;10.70;9.60;;;8.20;85.10;15.20;99616.00;;;;5010020;28;20199;-71
2021/04/18 08:34:43;;;;;;;14.82;11.63;;;8.20;85.20;15.20;99618.00;;;;4989838;28;20254;-71
2021/04/18 08:37:16;;;;;;;11.98;9.90;;;8.20;85.10;15.30;99605.00;;;;4993654;28;20218;-71
2021/04/18 08:39:42;;;;;;;12.18;10.38;;;8.20;85.20;15.50;99620.00;;;;5010059;28;20182;-70
2021/04/18 08:42:23;;;;;;;10.82;9.48;;;8.30;85.20;15.20;99610.00;;;;5010077;28;20258;-71
2021/04/18 08:44:50;;;;;;;12.80;10.77;;;8.20;85.20;15.30;99611.00;;;;4996622;28;20200;-71
2021/04/18 08:47:17;;;;;;;12.27;10.15;;;8.20;85.20;15.30;99607.00;;;;5010381;28;20204;-71
2021/04/18 08:49:45;;;;;;;11.07;9.75;;;8.30;85.30;15.40;99613.00;;;;5010709;28;20179;-71
2021/04/18 08:52:20;;;;;;;12.60;10.50;;;8.20;85.20;15.30;99619.00;;;;4993966;28;20208;-71
2021/04/18 08:54:46;;;;;;;12.32;10.38;;;8.30;85.30;15.20;99626.00;;;;5011136;28;20179;-71
2021/04/18 08:57:25;;;;;;;11.82;10.13;;;8.20;85.30;15.30;99620.00;;;;4993146;28;20242;-71
2021/04/18 08:59:55;;;;;;;12.77;10.95;;;8.20;85.20;15.20;99611.00;;;;5010332;28;20203;-71
2021/04/18 09:02:21;;;;;;;11.85;10.57;;;8.20;86.10;15.20;99608.00;;;;4992285;28;20623;-71
2021/04/18 09:04:50;;;;;;;11.90;10.00;;;8.30;85.30;15.30;99616.00;;;;4994560;28;20262;-71
2021/04/18 09:07:21;;;;;;;13.95;11.25;;;8.30;85.30;15.20;99613.00;;;;4993295;28;20550;-71
2021/04/18 09:09:47;;;;;;;12.43;9.93;;;8.30;85.20;15.10;99607.00;;;;4991722;28;20267;-70
2021/04/18 09:12:16;;;;;;;11.77;10.20;;;8.30;85.20;15.10;99599.00;;;;4992644;28;20319;-71
2021/04/18 09:14:47;;;;;;;12.60;11.20;;;8.30;85.20;15.40;99604.00;;;;4993506;28;20188;-70
2021/04/18 09:17:27;;;;;;;12.90;9.38;;;8.30;85.20;15.20;99593.00;;;;4993612;28;20210;-70
2021/04/18 09:19:58;;;;;;;10.18;8.98;;;8.30;85.10;15.30;99605.00;;;;4995065;28;20523;-70
2021/04/18 09:22:31;;;;;;;13.88;10.82;;;8.30;85.20;15.40;99602.00;;;;4993852;28;20944;-70
2021/04/18 09:24:59;;;;;;;13.05;9.85;;;8.30;85.20;15.30;99591.00;;;;5009705;28;20180;-70
2021/04/18 09:27:35;;;;;;;12.73;11.10;;;8.30;85.10;15.30;99608.00;;;;4993303;28;20285;-70
2021/04/18 09:30:07;;;;;;;11.82;9.52;;;8.30;85.10;15.30;99596.00;;;;5009605;28;20262;-71
2021/04/18 09:32:38;;;;;;;13.18;10.20;;;8.30;85.10;15.30;99602.00;;;;4978320;28;20207;-71
2021/04/18 09:35:06;;;;;;;11.68;10.45;;;8.30;85.10;15.20;99597.00;;;;5009894;28;20230;-70
2021/04/18 09:37:38;;;;;;;11.73;10.45;;;8.30;85.10;15.30;99601.00;;;;4992836;28;20296;-70
2021/04/18 09:40:15;;;;;;;11.43;8.93;;;8.30;85.10;15.40;99603.00;;;;4976984;28;20538;-71
2021/04/18 09:42:44;;;;;;;10.63;9.32;;;8.30;85.10;15.30;99591.00;;;;4977427;28;20230;-71
2021/04/18 09:45:14;;;;;;;10.98;8.50;;;8.30;85.10;15.40;99611.00;;;;4976848;28;20176;-71
2021/04/18 09:47:48;;;;;;;11.57;9.55;;;8.30;85.10;15.40;99615.00;;;;5007790;28;20341;-71
2021/04/18 09:50:21;;;;;;;11.85;9.65;;;8.30;85.10;15.40;99612.00;;;;4994635;28;20665;-70
2021/04/18 09:52:47;;;;;;;11.07;9.85;;;8.30;85.10;15.20;99617.00;;;;5009735;28;20207;-72
2021/04/18 09:55:21;;;;;;;10.80;9.70;;;8.30;85.10;15.10;99614.00;;;;4993284;28;20668;-71
2021/04/18 09:57:47;;;;;;;10.80;9.32;;;8.30;85.10;15.00;99612.00;;;;4977567;28;20222;-71
2021/04/18 10:00:33;;;;;;;12.00;10.40;;;8.30;85.10;15.40;99617.00;;;;5010579;28;20176;-72
2021/04/18 10:03:36;;;;;;;11.52;10.32;;;8.30;85.10;15.10;99610.00;;;;5008716;28;20388;-71
2021/04/18 10:06:01;;;;;;;11.10;9.20;;;8.30;85.10;15.30;99576.00;;;;4974255;28;20375;-71
2021/04/18 10:08:29;;;;;;;11.37;10.17;;;8.30;85.10;15.40;99615.00;;;;5009931;28;20366;-71
2021/04/18 10:10:57;;;;;;;10.93;9.27;;;8.30;85.10;15.30;99621.00;;;;4977063;28;20188;-71
2021/04/18 10:13:51;;;;;;;12.82;10.13;;;8.30;85.10;15.40;99618.00;;;;4988257;28;20274;-71
2021/04/18 10:16:24;;;;;;;12.40;9.93;;;8.30;85.10;15.50;99608.00;;;;5008945;28;20242;-71
2021/04/18 10:19:15;;;;;;;11.05;9.45;;;8.30;85.10;15.30;99624.00;;;;4975624;28;20219;-71
2021/04/18 10:22:03;;;;;;;11.10;9.32;;;8.40;85.20;15.40;99620.00;;;;5008775;28;20282;-71
2021/04/18 10:24:31;;;;;;;10.70;8.85;;;8.30;85.10;15.40;99617.00;;;;5008395;28;20265;-71
2021/04/18 10:26:58;;;;;;;10.57;9.43;;;8.40;85.20;15.50;99609.00;;;;4991390;28;20713;-71
2021/04/18 10:29:24;;;;;;;12.02;8.88;;;8.40;85.20;15.50;99620.00;;;;4976374;28;20275;-72
2021/04/18 10:31:49;;;;;;;11.13;9.87;;;8.40;85.10;15.40;99619.00;;;;4975687;28;20605;-71
2021/04/18 10:34:15;;;;;;;11.40;9.03;;;8.40;85.20;15.40;99602.00;;;;4990820;28;20227;-71
2021/04/18 10:36:41;;;;;;;10.03;8.93;;;8.40;85.10;15.60;99616.00;;;;4975950;28;20779;-71
2021/04/18 10:39:07;;;;;;;10.40;9.30;;;8.40;85.20;15.30;99608.00;;;;5007988;28;20470;-72
2021/04/18 10:41:32;;;;;;;10.37;9.30;;;8.40;85.10;15.50;99598.00;;;;4990812;28;20262;-71
2021/04/18 10:43:58;;;;;;;11.13;9.53;;;8.40;85.10;15.40;99607.00;;;;5024041;28;20316;-71
2021/04/18 10:46:24;;;;;;;10.93;9.77;;;8.40;85.10;15.50;99599.00;;;;5011789;28;20228;-71
2021/04/18 10:48:49;;;;;;;9.90;8.90;;;8.40;85.10;15.50;99606.00;;;;5010112;28;20191;-71
2021/04/18 10:51:15;;;;;;;11.07;9.07;;;8.40;85.10;15.50;99608.00;;;;4995081;28;20546;-71
2021/04/18 10:53:41;;;;;;;10.33;8.83;;;8.40;85.10;15.50;99615.00;;;;4994808;28;20183;-71
2021/04/18 10:56:07;;;;;;;11.20;9.47;;;8.40;85.10;15.60;99599.00;;;;5028560;28;20198;-71